Friday, September 19, 2014
05:54 UTC
  |  Log In   |  Register Free
Airport Search:

John F Kennedy Memorial Airport
(KASX)

John F Kennedy Memorial Airport Diagram
No Airport Diagram Available

FAA data valid effective September 18, 2014 - November 13, 2014 (unless otherwise noted).

 
 
 
 
 
 
 
 
 
 
 
 
 
 

Current Aviation Weather for John F Kennedy Memorial Airport (KASX)

The most recent METAR observation for KASX was updated at: 0509
METAR Summary (Translated METAR)
KASX
190453Z AUTO 00000KT 4SM BR CLR 04/03 A3004 RMK AO2 SLP178 T00440033
KIWD
190455Z 18010G17KT 10SM CLR 11/09 A3003 RMK AO1
(32.5 nm SE from KASX)
KHYR
190453Z AUTO 20007KT 8SM FEW008 SCT049 12/11 A3004 RMK AO2 SLP177 T01170106
(38.2 nm SW from KASX)
TAF Summary (Translated TAF)
KIWD
(32.5 nm SE from KASX)
182214Z 1822/1918 16006KT P6SM BKN018 FM190000 17007KT P6SM SCT020 TEMPO 1900/1902 BKN020 FM190200 17007KT P6SM SCT025 FM190600 19010G15KT P6SM BKN015 FM191500 19015G23KT P6SM BKN020 AMD LTD TO CLD VIS AND WIND
KHYR
(38.2 nm SW from KASX)
190415Z 1904/1924 17007KT P6SM SCT250 WS020/20040KT FM191200 18010G20KT P6SM SCT015 BKN200 FM191500 19014G26KT P6SM SCT020 BKN100 FM192000 19014G25KT P6SM -SHRA BKN040
  Airport Weather Conditions for KASX

 Current Weather at ASX
40° F
Fair
North winds at 0.0 mph
ASX NOAA Radar

Pressure: 30.04 in
Humidity: 93%
Wind: Calm
Dew Point: 37.9°F
Visibility: 9.00 mi


Airport Weather Forecast for KASX

Translated METAR and TAF for KASX
Translated METAR for KASX (0548 UTC 19 September 2014)
found at http://aviationweather.gov/adds/metars/
 
METAR text: KASX 190453Z AUTO 00000KT 4SM BR CLR 04/03 A3004 RMK AO2 SLP178 T00440033
Conditions at: KASX (ASHLAND , WI, US) observed 0453 UTC 19 September 2014
Temperature: 4.4°C (40°F)
Dewpoint: 3.3°C (38°F) [RH = 93%]
Pressure (altimeter): 30.04 inches Hg (1017.4 mb)
[Sea-level pressure: 1017.8 mb]
Winds: calm
Visibility: 4 miles (6 km)
Ceiling: at least 12,000 feet AGL
Clouds: sky clear below 12,000 feet AGL
Weather: BR  (mist)
Translated TAF for KASX

There is no translated TAF available for this airport

Find All Airport Services Find A Hotel Find A Rental Car Find A Golf Course Find A Restaurant $100 Hamburger



FBO's on the Field
FBO Company Facility Photos Services Transportation Aviation Fuel Prices: Prices include tax
Catering Weather Repair Courtesy Rental Type 100LL JetA JetA+ MOGAS 8087
 
John F Kennedy Memorial Airport

This FBO has not yet been rated
FS:Phillips66
Last Updated: Sep-12
Login to update fuel prices
SS:
Contact John F Kennedy Memorial AirportMore FBO Information
 
Add another FBO Facility Photos Catering Weather Repair Courtesy Rental Type 100LL JetA JetA+ MOGAS 8087
Services Transportation Aviation Fuel Prices: Prices include tax


model-print
model-print
model-print
model-print